sensor_id;sensor_type;location;lat;lon;timestamp;temperature;humidity
28189;DHT22;15471;51.166;4.470;2022-11-20T00:01:19;4.10;99.90
28189;DHT22;15471;51.166;4.470;2022-11-20T00:03:45;4.00;99.90
28189;DHT22;15471;51.166;4.470;2022-11-20T00:06:14;4.10;99.90
28189;DHT22;15471;51.166;4.470;2022-11-20T00:08:40;4.20;99.90
28189;DHT22;15471;51.166;4.470;2022-11-20T00:11:15;4.20;99.90
28189;DHT22;15471;51.166;4.470;2022-11-20T00:13:41;4.20;99.90
28189;DHT22;15471;51.166;4.470;2022-11-20T00:16:09;4.20;99.90
28189;DHT22;15471;51.166;4.470;2022-11-20T00:18:36;4.20;99.90
28189;DHT22;15471;51.166;4.470;2022-11-20T00:21:07;4.30;99.90
28189;DHT22;15471;51.166;4.470;2022-11-20T00:23:33;4.30;99.90
28189;DHT22;15471;51.166;4.470;2022-11-20T00:26:07;4.30;99.90
28189;DHT22;15471;51.166;4.470;2022-11-20T00:28:33;4.30;99.90
28189;DHT22;15471;51.166;4.470;2022-11-20T00:31:03;4.30;99.90
28189;DHT22;15471;51.166;4.470;2022-11-20T00:33:29;4.20;99.90
28189;DHT22;15471;51.166;4.470;2022-11-20T00:36:18;4.30;99.90
28189;DHT22;15471;51.166;4.470;2022-11-20T00:38:44;4.30;99.90
28189;DHT22;15471;51.166;4.470;2022-11-20T00:41:12;4.40;99.90
28189;DHT22;15471;51.166;4.470;2022-11-20T00:43:38;4.40;99.90
28189;DHT22;15471;51.166;4.470;2022-11-20T00:46:14;4.50;99.90
28189;DHT22;15471;51.166;4.470;2022-11-20T00:48:40;4.40;99.90
28189;DHT22;15471;51.166;4.470;2022-11-20T00:51:07;4.30;99.90
28189;DHT22;15471;51.166;4.470;2022-11-20T00:53:33;4.30;99.90
28189;DHT22;15471;51.166;4.470;2022-11-20T00:56:01;4.20;99.90
28189;DHT22;15471;51.166;4.470;2022-11-20T00:58:35;4.20;99.90
28189;DHT22;15471;51.166;4.470;2022-11-20T01:01:02;4.30;99.90
28189;DHT22;15471;51.166;4.470;2022-11-20T01:03:34;4.20;99.90
28189;DHT22;15471;51.166;4.470;2022-11-20T01:06:10;4.20;99.90
28189;DHT22;15471;51.166;4.470;2022-11-20T01:08:37;4.30;99.90
28189;DHT22;15471;51.166;4.470;2022-11-20T01:11:06;4.30;99.90
28189;DHT22;15471;51.166;4.470;2022-11-20T01:13:32;4.30;99.90
28189;DHT22;15471;51.166;4.470;2022-11-20T01:16:11;4.40;99.90
28189;DHT22;15471;51.166;4.470;2022-11-20T01:18:39;4.40;99.90
28189;DHT22;15471;51.166;4.470;2022-11-20T01:21:11;4.40;99.90
28189;DHT22;15471;51.166;4.470;2022-11-20T01:23:39;4.40;99.90
28189;DHT22;15471;51.166;4.470;2022-11-20T01:26:07;4.50;99.90
28189;DHT22;15471;51.166;4.470;2022-11-20T01:28:34;4.50;99.90
28189;DHT22;15471;51.166;4.470;2022-11-20T01:31:00;4.50;99.90
28189;DHT22;15471;51.166;4.470;2022-11-20T01:33:27;4.50;99.90
28189;DHT22;15471;51.166;4.470;2022-11-20T01:35:53;4.50;99.90
28189;DHT22;15471;51.166;4.470;2022-11-20T01:38:19;4.40;99.90
28189;DHT22;15471;51.166;4.470;2022-11-20T01:40:55;4.30;99.90
28189;DHT22;15471;51.166;4.470;2022-11-20T01:43:21;4.30;99.90
28189;DHT22;15471;51.166;4.470;2022-11-20T01:48:54;4.20;99.90
28189;DHT22;15471;51.166;4.470;2022-11-20T01:51:45;4.20;99.90
28189;DHT22;15471;51.166;4.470;2022-11-20T01:54:19;4.20;99.90
28189;DHT22;15471;51.166;4.470;2022-11-20T01:56:48;4.10;99.90
28189;DHT22;15471;51.166;4.470;2022-11-20T01:59:18;4.10;99.90
28189;DHT22;15471;51.166;4.470;2022-11-20T02:01:44;4.10;99.90
28189;DHT22;15471;51.166;4.470;2022-11-20T02:04:10;4.10;99.90
28189;DHT22;15471;51.166;4.470;2022-11-20T02:06:40;4.00;99.90
28189;DHT22;15471;51.166;4.470;2022-11-20T02:09:08;4.10;99.90
28189;DHT22;15471;51.166;4.470;2022-11-20T02:11:34;4.10;99.90
28189;DHT22;15471;51.166;4.470;2022-11-20T02:14:00;4.10;99.90
28189;DHT22;15471;51.166;4.470;2022-11-20T02:16:30;4.20;99.90
28189;DHT22;15471;51.166;4.470;2022-11-20T02:18:58;4.10;99.90
28189;DHT22;15471;51.166;4.470;2022-11-20T02:24:25;3.80;99.90
28189;DHT22;15471;51.166;4.470;2022-11-20T02:26:57;3.80;99.90
28189;DHT22;15471;51.166;4.470;2022-11-20T02:29:38;3.80;99.90
28189;DHT22;15471;51.166;4.470;2022-11-20T02:32:05;3.90;99.90
28189;DHT22;15471;51.166;4.470;2022-11-20T02:34:31;4.00;99.90
28189;DHT22;15471;51.166;4.470;2022-11-20T02:36:57;4.00;99.90
28189;DHT22;15471;51.166;4.470;2022-11-20T02:39:25;4.00;99.90
28189;DHT22;15471;51.166;4.470;2022-11-20T02:41:53;4.00;99.90
28189;DHT22;15471;51.166;4.470;2022-11-20T02:44:20;4.00;99.90
28189;DHT22;15471;51.166;4.470;2022-11-20T02:46:46;4.00;99.90
28189;DHT22;15471;51.166;4.470;2022-11-20T02:49:11;4.00;99.90
28189;DHT22;15471;51.166;4.470;2022-11-20T02:51:37;4.00;99.90
28189;DHT22;15471;51.166;4.470;2022-11-20T02:54:03;4.10;99.90
28189;DHT22;15471;51.166;4.470;2022-11-20T02:56:29;4.00;99.90
28189;DHT22;15471;51.166;4.470;2022-11-20T02:58:55;3.90;99.90
28189;DHT22;15471;51.166;4.470;2022-11-20T03:01:21;4.00;99.90
28189;DHT22;15471;51.166;4.470;2022-11-20T03:03:47;4.00;99.90
28189;DHT22;15471;51.166;4.470;2022-11-20T03:06:15;4.00;99.90
28189;DHT22;15471;51.166;4.470;2022-11-20T03:08:42;4.10;99.90
28189;DHT22;15471;51.166;4.470;2022-11-20T03:11:08;4.10;99.90
28189;DHT22;15471;51.166;4.470;2022-11-20T03:13:34;4.00;99.90
28189;DHT22;15471;51.166;4.470;2022-11-20T03:16:13;4.00;99.90
28189;DHT22;15471;51.166;4.470;2022-11-20T03:18:41;3.90;99.90
28189;DHT22;15471;51.166;4.470;2022-11-20T03:21:08;3.80;99.90
28189;DHT22;15471;51.166;4.470;2022-11-20T03:23:35;3.90;99.90
28189;DHT22;15471;51.166;4.470;2022-11-20T03:26:19;3.90;99.90
28189;DHT22;15471;51.166;4.470;2022-11-20T03:28:53;3.90;99.90
28189;DHT22;15471;51.166;4.470;2022-11-20T03:31:22;3.90;99.90
28189;DHT22;15471;51.166;4.470;2022-11-20T03:33:49;4.00;99.90
28189;DHT22;15471;51.166;4.470;2022-11-20T03:36:16;4.10;99.90
28189;DHT22;15471;51.166;4.470;2022-11-20T03:38:43;4.10;99.90
28189;DHT22;15471;51.166;4.470;2022-11-20T03:41:16;4.00;99.90
28189;DHT22;15471;51.166;4.470;2022-11-20T03:43:50;4.00;99.90
28189;DHT22;15471;51.166;4.470;2022-11-20T03:46:16;4.00;99.90
28189;DHT22;15471;51.166;4.470;2022-11-20T03:48:42;4.00;99.90
28189;DHT22;15471;51.166;4.470;2022-11-20T03:51:12;4.00;99.90
28189;DHT22;15471;51.166;4.470;2022-11-20T03:53:39;4.10;99.90
28189;DHT22;15471;51.166;4.470;2022-11-20T03:56:06;4.10;99.90
28189;DHT22;15471;51.166;4.470;2022-11-20T03:58:33;4.10;99.90
28189;DHT22;15471;51.166;4.470;2022-11-20T04:01:05;4.10;99.90
28189;DHT22;15471;51.166;4.470;2022-11-20T04:03:31;4.10;99.90
28189;DHT22;15471;51.166;4.470;2022-11-20T04:06:12;4.20;99.90
28189;DHT22;15471;51.166;4.470;2022-11-20T04:08:38;4.20;99.90
28189;DHT22;15471;51.166;4.470;2022-11-20T04:11:22;4.30;99.90
28189;DHT22;15471;51.166;4.470;2022-11-20T04:13:51;4.30;99.90
28189;DHT22;15471;51.166;4.470;2022-11-20T04:16:17;4.20;99.90
28189;DHT22;15471;51.166;4.470;2022-11-20T04:18:43;4.30;99.90
28189;DHT22;15471;51.166;4.470;2022-11-20T04:21:09;4.20;99.90
28189;DHT22;15471;51.166;4.470;2022-11-20T04:23:36;4.20;99.90
28189;DHT22;15471;51.166;4.470;2022-11-20T04:26:09;4.20;99.90
28189;DHT22;15471;51.166;4.470;2022-11-20T04:28:36;4.30;99.90
28189;DHT22;15471;51.166;4.470;2022-11-20T04:31:08;4.30;99.90
28189;DHT22;15471;51.166;4.470;2022-11-20T04:33:35;4.30;99.90
28189;DHT22;15471;51.166;4.470;2022-11-20T04:36:03;3.90;99.90
28189;DHT22;15471;51.166;4.470;2022-11-20T04:38:29;3.80;99.90
28189;DHT22;15471;51.166;4.470;2022-11-20T04:41:00;3.70;99.90
28189;DHT22;15471;51.166;4.470;2022-11-20T04:43:26;3.70;99.90
28189;DHT22;15471;51.166;4.470;2022-11-20T04:45:54;3.80;99.90
28189;DHT22;15471;51.166;4.470;2022-11-20T04:48:20;3.90;99.90
28189;DHT22;15471;51.166;4.470;2022-11-20T04:50:46;4.00;99.90
28189;DHT22;15471;51.166;4.470;2022-11-20T04:53:12;4.10;99.90
28189;DHT22;15471;51.166;4.470;2022-11-20T04:55:37;4.20;99.90
28189;DHT22;15471;51.166;4.470;2022-11-20T04:58:03;4.20;99.90
28189;DHT22;15471;51.166;4.470;2022-11-20T05:00:29;4.30;99.90
28189;DHT22;15471;51.166;4.470;2022-11-20T05:02:55;4.30;99.90
28189;DHT22;15471;51.166;4.470;2022-11-20T05:05:21;4.30;99.90
28189;DHT22;15471;51.166;4.470;2022-11-20T05:07:47;4.30;99.90
28189;DHT22;15471;51.166;4.470;2022-11-20T05:10:13;4.20;99.90
28189;DHT22;15471;51.166;4.470;2022-11-20T05:12:39;4.20;99.90
28189;DHT22;15471;51.166;4.470;2022-11-20T05:15:05;4.30;99.90
28189;DHT22;15471;51.166;4.470;2022-11-20T05:17:31;4.30;99.90
28189;DHT22;15471;51.166;4.470;2022-11-20T05:19:56;4.30;99.90
28189;DHT22;15471;51.166;4.470;2022-11-20T05:22:22;4.30;99.90
28189;DHT22;15471;51.166;4.470;2022-11-20T05:24:48;4.30;99.90
28189;DHT22;15471;51.166;4.470;2022-11-20T05:27:14;4.30;99.90
28189;DHT22;15471;51.166;4.470;2022-11-20T05:29:40;4.30;99.90
28189;DHT22;15471;51.166;4.470;2022-11-20T05:32:05;4.30;99.90
28189;DHT22;15471;51.166;4.470;2022-11-20T05:34:34;4.30;99.90
28189;DHT22;15471;51.166;4.470;2022-11-20T05:37:00;4.30;99.90
28189;DHT22;15471;51.166;4.470;2022-11-20T05:39:25;4.30;99.90
28189;DHT22;15471;51.166;4.470;2022-11-20T05:41:51;4.30;99.90
28189;DHT22;15471;51.166;4.470;2022-11-20T05:44:37;4.20;99.90
28189;DHT22;15471;51.166;4.470;2022-11-20T05:47:02;4.30;99.90
28189;DHT22;15471;51.166;4.470;2022-11-20T05:49:28;4.20;99.90
28189;DHT22;15471;51.166;4.470;2022-11-20T05:51:54;4.20;99.90
28189;DHT22;15471;51.166;4.470;2022-11-20T05:54:19;4.30;99.90
28189;DHT22;15471;51.166;4.470;2022-11-20T05:56:45;4.20;99.90
28189;DHT22;15471;51.166;4.470;2022-11-20T05:59:11;4.10;99.90
28189;DHT22;15471;51.166;4.470;2022-11-20T06:01:37;4.20;99.90
28189;DHT22;15471;51.166;4.470;2022-11-20T06:04:03;4.20;99.90
28189;DHT22;15471;51.166;4.470;2022-11-20T06:06:28;4.20;99.90
28189;DHT22;15471;51.166;4.470;2022-11-20T06:08:54;4.10;99.90
28189;DHT22;15471;51.166;4.470;2022-11-20T06:11:20;4.10;99.90
28189;DHT22;15471;51.166;4.470;2022-11-20T06:13:48;4.00;99.90
28189;DHT22;15471;51.166;4.470;2022-11-20T06:16:16;4.00;99.90
28189;DHT22;15471;51.166;4.470;2022-11-20T06:18:42;4.10;99.90
28189;DHT22;15471;51.166;4.470;2022-11-20T06:21:19;4.00;99.90
28189;DHT22;15471;51.166;4.470;2022-11-20T06:23:46;4.10;99.90
28189;DHT22;15471;51.166;4.470;2022-11-20T06:26:17;4.10;99.90
28189;DHT22;15471;51.166;4.470;2022-11-20T06:28:43;4.10;99.90
28189;DHT22;15471;51.166;4.470;2022-11-20T06:31:11;4.10;99.90
28189;DHT22;15471;51.166;4.470;2022-11-20T06:33:37;4.10;99.90
28189;DHT22;15471;51.166;4.470;2022-11-20T06:36:03;4.20;99.90
28189;DHT22;15471;51.166;4.470;2022-11-20T06:38:29;4.00;99.90
28189;DHT22;15471;51.166;4.470;2022-11-20T06:40:56;4.00;99.90
28189;DHT22;15471;51.166;4.470;2022-11-20T06:43:22;4.00;99.90
28189;DHT22;15471;51.166;4.470;2022-11-20T06:45:55;4.10;99.90
28189;DHT22;15471;51.166;4.470;2022-11-20T06:48:22;4.10;99.90
28189;DHT22;15471;51.166;4.470;2022-11-20T06:50:48;4.10;99.90
28189;DHT22;15471;51.166;4.470;2022-11-20T06:53:14;4.10;99.90
28189;DHT22;15471;51.166;4.470;2022-11-20T06:55:44;4.10;99.90
28189;DHT22;15471;51.166;4.470;2022-11-20T06:58:11;4.00;99.90
28189;DHT22;15471;51.166;4.470;2022-11-20T07:00:37;4.00;99.90
28189;DHT22;15471;51.166;4.470;2022-11-20T07:03:04;4.00;99.90
28189;DHT22;15471;51.166;4.470;2022-11-20T07:05:30;4.10;99.90
28189;DHT22;15471;51.166;4.470;2022-11-20T07:07:56;4.10;99.90
28189;DHT22;15471;51.166;4.470;2022-11-20T07:10:23;4.20;99.90
28189;DHT22;15471;51.166;4.470;2022-11-20T07:12:50;4.20;99.90
28189;DHT22;15471;51.166;4.470;2022-11-20T07:15:17;4.20;99.90
28189;DHT22;15471;51.166;4.470;2022-11-20T07:17:43;4.20;99.90
28189;DHT22;15471;51.166;4.470;2022-11-20T07:20:09;4.20;99.90
28189;DHT22;15471;51.166;4.470;2022-11-20T07:22:34;4.20;99.90
28189;DHT22;15471;51.166;4.470;2022-11-20T07:25:01;4.20;99.90
28189;DHT22;15471;51.166;4.470;2022-11-20T07:27:27;4.30;99.90
28189;DHT22;15471;51.166;4.470;2022-11-20T07:29:53;4.20;99.90
28189;DHT22;15471;51.166;4.470;2022-11-20T07:32:19;4.30;99.90
28189;DHT22;15471;51.166;4.470;2022-11-20T07:34:48;4.30;99.90
28189;DHT22;15471;51.166;4.470;2022-11-20T07:37:14;4.40;99.90
28189;DHT22;15471;51.166;4.470;2022-11-20T07:39:41;4.30;99.90
28189;DHT22;15471;51.166;4.470;2022-11-20T07:42:08;4.30;99.90
28189;DHT22;15471;51.166;4.470;2022-11-20T07:44:42;4.40;99.90
28189;DHT22;15471;51.166;4.470;2022-11-20T07:47:08;4.40;99.90
28189;DHT22;15471;51.166;4.470;2022-11-20T07:49:33;4.40;99.90
28189;DHT22;15471;51.166;4.470;2022-11-20T07:51:59;4.50;99.90
28189;DHT22;15471;51.166;4.470;2022-11-20T07:54:25;4.50;99.90
28189;DHT22;15471;51.166;4.470;2022-11-20T07:56:51;4.40;99.90
28189;DHT22;15471;51.166;4.470;2022-11-20T07:59:16;4.40;99.90
28189;DHT22;15471;51.166;4.470;2022-11-20T08:01:43;4.50;99.90
28189;DHT22;15471;51.166;4.470;2022-11-20T08:04:09;4.50;99.90
28189;DHT22;15471;51.166;4.470;2022-11-20T08:06:36;4.60;99.90
28189;DHT22;15471;51.166;4.470;2022-11-20T08:09:02;4.60;99.90
28189;DHT22;15471;51.166;4.470;2022-11-20T08:11:28;4.60;99.90
28189;DHT22;15471;51.166;4.470;2022-11-20T08:14:13;4.70;99.90
28189;DHT22;15471;51.166;4.470;2022-11-20T08:19:05;4.80;99.90
28189;DHT22;15471;51.166;4.470;2022-11-20T08:21:31;4.80;99.90
28189;DHT22;15471;51.166;4.470;2022-11-20T08:23:58;4.70;99.90
28189;DHT22;15471;51.166;4.470;2022-11-20T08:26:24;4.90;99.90
28189;DHT22;15471;51.166;4.470;2022-11-20T08:28:56;4.90;99.90
28189;DHT22;15471;51.166;4.470;2022-11-20T08:31:22;5.00;99.90
28189;DHT22;15471;51.166;4.470;2022-11-20T08:33:49;5.00;99.90
28189;DHT22;15471;51.166;4.470;2022-11-20T08:36:15;4.90;99.90
28189;DHT22;15471;51.166;4.470;2022-11-20T08:38:40;5.00;99.90
28189;DHT22;15471;51.166;4.470;2022-11-20T08:41:06;5.00;99.90
28189;DHT22;15471;51.166;4.470;2022-11-20T08:43:54;5.10;99.90
28189;DHT22;15471;51.166;4.470;2022-11-20T08:46:20;5.10;99.90
28189;DHT22;15471;51.166;4.470;2022-11-20T08:48:46;5.10;99.90
28189;DHT22;15471;51.166;4.470;2022-11-20T08:51:13;5.20;99.90
28189;DHT22;15471;51.166;4.470;2022-11-20T08:53:39;5.20;99.90
28189;DHT22;15471;51.166;4.470;2022-11-20T08:56:05;5.20;99.90
28189;DHT22;15471;51.166;4.470;2022-11-20T08:58:31;5.30;99.90
28189;DHT22;15471;51.166;4.470;2022-11-20T09:00:57;5.30;99.90
28189;DHT22;15471;51.166;4.470;2022-11-20T09:03:22;5.40;99.90
28189;DHT22;15471;51.166;4.470;2022-11-20T09:05:48;5.40;99.90
28189;DHT22;15471;51.166;4.470;2022-11-20T09:08:14;5.50;99.90
28189;DHT22;15471;51.166;4.470;2022-11-20T09:10:40;5.50;99.90
28189;DHT22;15471;51.166;4.470;2022-11-20T09:13:06;5.50;99.90
28189;DHT22;15471;51.166;4.470;2022-11-20T09:15:32;5.60;99.90
28189;DHT22;15471;51.166;4.470;2022-11-20T09:18:00;5.60;99.90
28189;DHT22;15471;51.166;4.470;2022-11-20T09:20:27;5.60;99.90
28189;DHT22;15471;51.166;4.470;2022-11-20T09:22:54;5.60;99.90
28189;DHT22;15471;51.166;4.470;2022-11-20T09:25:21;5.60;99.90
28189;DHT22;15471;51.166;4.470;2022-11-20T09:27:47;5.60;99.90
28189;DHT22;15471;51.166;4.470;2022-11-20T09:30:14;5.60;99.90
28189;DHT22;15471;51.166;4.470;2022-11-20T09:32:40;5.70;99.90
28189;DHT22;15471;51.166;4.470;2022-11-20T09:35:06;5.70;99.90
28189;DHT22;15471;51.166;4.470;2022-11-20T09:37:32;5.70;99.90
28189;DHT22;15471;51.166;4.470;2022-11-20T09:39:58;5.80;99.90
28189;DHT22;15471;51.166;4.470;2022-11-20T09:42:54;5.80;99.90
28189;DHT22;15471;51.166;4.470;2022-11-20T09:51:13;6.00;99.90
28189;DHT22;15471;51.166;4.470;2022-11-20T09:56:56;6.10;99.90
28189;DHT22;15471;51.166;4.470;2022-11-20T10:02:00;6.20;99.90
28189;DHT22;15471;51.166;4.470;2022-11-20T10:04:29;6.20;99.90
28189;DHT22;15471;51.166;4.470;2022-11-20T10:07:07;6.20;99.90
28189;DHT22;15471;51.166;4.470;2022-11-20T10:09:53;6.20;99.90
28189;DHT22;15471;51.166;4.470;2022-11-20T10:15:33;6.20;99.90
28189;DHT22;15471;51.166;4.470;2022-11-20T10:18:23;6.20;99.90
28189;DHT22;15471;51.166;4.470;2022-11-20T10:29:17;6.10;99.90
28189;DHT22;15471;51.166;4.470;2022-11-20T10:35:05;6.20;99.90
28189;DHT22;15471;51.166;4.470;2022-11-20T10:37:36;6.20;99.90
28189;DHT22;15471;51.166;4.470;2022-11-20T10:43:13;6.30;99.90
28189;DHT22;15471;51.166;4.470;2022-11-20T10:48:21;6.40;99.90
28189;DHT22;15471;51.166;4.470;2022-11-20T11:01:52;6.90;99.90
28189;DHT22;15471;51.166;4.470;2022-11-20T11:07:05;7.00;99.90
28189;DHT22;15471;51.166;4.470;2022-11-20T11:09:41;7.20;99.90
28189;DHT22;15471;51.166;4.470;2022-11-20T11:12:08;7.20;99.90
28189;DHT22;15471;51.166;4.470;2022-11-20T11:14:52;7.20;99.90
28189;DHT22;15471;51.166;4.470;2022-11-20T11:22:34;7.40;99.90
28189;DHT22;15471;51.166;4.470;2022-11-20T11:25:01;7.50;99.90
28189;DHT22;15471;51.166;4.470;2022-11-20T11:27:27;7.50;99.90
28189;DHT22;15471;51.166;4.470;2022-11-20T11:30:12;7.60;99.90
28189;DHT22;15471;51.166;4.470;2022-11-20T11:32:38;7.70;99.90
28189;DHT22;15471;51.166;4.470;2022-11-20T11:35:06;7.80;99.90
28189;DHT22;15471;51.166;4.470;2022-11-20T11:37:38;7.80;99.90
28189;DHT22;15471;51.166;4.470;2022-11-20T11:40:05;7.90;99.90
28189;DHT22;15471;51.166;4.470;2022-11-20T11:42:32;7.90;99.90
28189;DHT22;15471;51.166;4.470;2022-11-20T11:45:00;7.90;99.90
28189;DHT22;15471;51.166;4.470;2022-11-20T12:01:12;8.20;99.90
28189;DHT22;15471;51.166;4.470;2022-11-20T12:03:42;8.40;99.90
28189;DHT22;15471;51.166;4.470;2022-11-20T12:06:14;8.40;99.90
28189;DHT22;15471;51.166;4.470;2022-11-20T12:08:57;8.50;99.90
28189;DHT22;15471;51.166;4.470;2022-11-20T12:11:45;8.50;99.90
28189;DHT22;15471;51.166;4.470;2022-11-20T12:16:52;8.60;99.90
28189;DHT22;15471;51.166;4.470;2022-11-20T12:19:19;8.60;99.90
28189;DHT22;15471;51.166;4.470;2022-11-20T12:30:22;8.80;99.90
28189;DHT22;15471;51.166;4.470;2022-11-20T12:33:17;8.80;99.90
28189;DHT22;15471;51.166;4.470;2022-11-20T12:52:48;8.40;99.90
28189;DHT22;15471;51.166;4.470;2022-11-20T12:55:32;8.40;99.90
28189;DHT22;15471;51.166;4.470;2022-11-20T12:58:21;8.30;99.90
28189;DHT22;15471;51.166;4.470;2022-11-20T13:01:22;8.10;99.90
28189;DHT22;15471;51.166;4.470;2022-11-20T13:07:12;8.10;99.90
28189;DHT22;15471;51.166;4.470;2022-11-20T13:09:47;8.10;99.90
28189;DHT22;15471;51.166;4.470;2022-11-20T13:12:41;8.00;99.90
28189;DHT22;15471;51.166;4.470;2022-11-20T13:15:39;7.90;99.90
28189;DHT22;15471;51.166;4.470;2022-11-20T13:18:11;7.90;99.90
28189;DHT22;15471;51.166;4.470;2022-11-20T13:20:45;7.90;99.90
28189;DHT22;15471;51.166;4.470;2022-11-20T13:23:26;8.00;99.90
28189;DHT22;15471;51.166;4.470;2022-11-20T13:26:06;8.10;99.90
28189;DHT22;15471;51.166;4.470;2022-11-20T13:28:39;8.10;99.90
28189;DHT22;15471;51.166;4.470;2022-11-20T13:31:32;8.10;99.90
28189;DHT22;15471;51.166;4.470;2022-11-20T13:34:02;8.10;99.90
28189;DHT22;15471;51.166;4.470;2022-11-20T13:36:32;8.10;99.90
28189;DHT22;15471;51.166;4.470;2022-11-20T13:38:58;8.10;99.90
28189;DHT22;15471;51.166;4.470;2022-11-20T13:41:28;8.10;99.90
28189;DHT22;15471;51.166;4.470;2022-11-20T13:43:58;8.10;99.90
28189;DHT22;15471;51.166;4.470;2022-11-20T13:46:43;8.10;99.90
28189;DHT22;15471;51.166;4.470;2022-11-20T13:49:38;8.10;99.90
28189;DHT22;15471;51.166;4.470;2022-11-20T14:00:22;8.00;99.90
28189;DHT22;15471;51.166;4.470;2022-11-20T14:03:10;8.00;99.90
28189;DHT22;15471;51.166;4.470;2022-11-20T14:05:55;8.00;99.90
28189;DHT22;15471;51.166;4.470;2022-11-20T14:08:52;8.00;99.90
28189;DHT22;15471;51.166;4.470;2022-11-20T14:17:20;7.90;99.90
28189;DHT22;15471;51.166;4.470;2022-11-20T14:19:48;7.90;99.90
28189;DHT22;15471;51.166;4.470;2022-11-20T14:24:44;7.90;99.90
28189;DHT22;15471;51.166;4.470;2022-11-20T14:27:18;7.90;99.90
28189;DHT22;15471;51.166;4.470;2022-11-20T14:29:46;7.90;99.90
28189;DHT22;15471;51.166;4.470;2022-11-20T14:32:16;8.00;99.90
28189;DHT22;15471;51.166;4.470;2022-11-20T14:34:45;8.00;99.90
28189;DHT22;15471;51.166;4.470;2022-11-20T14:37:32;8.00;99.90
28189;DHT22;15471;51.166;4.470;2022-11-20T14:39:58;8.00;99.90
28189;DHT22;15471;51.166;4.470;2022-11-20T14:42:27;8.00;99.90
28189;DHT22;15471;51.166;4.470;2022-11-20T14:44:58;8.00;99.90
28189;DHT22;15471;51.166;4.470;2022-11-20T14:47:30;8.10;99.90
28189;DHT22;15471;51.166;4.470;2022-11-20T14:49:57;8.10;99.90
28189;DHT22;15471;51.166;4.470;2022-11-20T14:52:26;8.10;99.90
28189;DHT22;15471;51.166;4.470;2022-11-20T14:54:58;8.10;99.90
28189;DHT22;15471;51.166;4.470;2022-11-20T14:57:26;8.10;99.90
28189;DHT22;15471;51.166;4.470;2022-11-20T15:02:30;8.00;99.90
28189;DHT22;15471;51.166;4.470;2022-11-20T15:05:00;8.10;99.90
28189;DHT22;15471;51.166;4.470;2022-11-20T15:07:37;8.10;99.90
28189;DHT22;15471;51.166;4.470;2022-11-20T15:10:08;8.10;99.90
28189;DHT22;15471;51.166;4.470;2022-11-20T15:12:38;8.00;99.90
28189;DHT22;15471;51.166;4.470;2022-11-20T15:15:05;8.10;99.90
28189;DHT22;15471;51.166;4.470;2022-11-20T15:17:33;8.10;99.90
28189;DHT22;15471;51.166;4.470;2022-11-20T15:20:02;8.20;99.90
28189;DHT22;15471;51.166;4.470;2022-11-20T15:22:29;8.20;99.90
28189;DHT22;15471;51.166;4.470;2022-11-20T15:24:55;8.20;99.90
28189;DHT22;15471;51.166;4.470;2022-11-20T15:27:20;8.20;99.90
28189;DHT22;15471;51.166;4.470;2022-11-20T15:29:46;8.30;99.90
28189;DHT22;15471;51.166;4.470;2022-11-20T15:32:12;8.30;99.90
28189;DHT22;15471;51.166;4.470;2022-11-20T15:34:38;8.40;99.90
28189;DHT22;15471;51.166;4.470;2022-11-20T15:37:03;8.30;99.90
28189;DHT22;15471;51.166;4.470;2022-11-20T15:39:29;8.30;99.90
28189;DHT22;15471;51.166;4.470;2022-11-20T15:41:55;8.30;99.90
28189;DHT22;15471;51.166;4.470;2022-11-20T15:44:21;8.30;99.90
28189;DHT22;15471;51.166;4.470;2022-11-20T15:46:46;8.30;99.90
28189;DHT22;15471;51.166;4.470;2022-11-20T15:49:14;8.30;99.90
28189;DHT22;15471;51.166;4.470;2022-11-20T15:51:46;8.30;99.90
28189;DHT22;15471;51.166;4.470;2022-11-20T15:54:13;8.30;99.90
28189;DHT22;15471;51.166;4.470;2022-11-20T15:56:40;8.20;99.90
28189;DHT22;15471;51.166;4.470;2022-11-20T15:59:06;8.20;99.90
28189;DHT22;15471;51.166;4.470;2022-11-20T16:01:35;8.10;99.90
28189;DHT22;15471;51.166;4.470;2022-11-20T16:04:01;8.10;99.90
28189;DHT22;15471;51.166;4.470;2022-11-20T16:06:27;8.10;99.90
28189;DHT22;15471;51.166;4.470;2022-11-20T16:08:53;8.10;99.90
28189;DHT22;15471;51.166;4.470;2022-11-20T16:11:18;8.10;99.90
28189;DHT22;15471;51.166;4.470;2022-11-20T16:13:44;8.10;99.90
28189;DHT22;15471;51.166;4.470;2022-11-20T16:16:32;8.10;99.90
28189;DHT22;15471;51.166;4.470;2022-11-20T16:18:58;8.00;99.90
28189;DHT22;15471;51.166;4.470;2022-11-20T16:21:25;8.10;99.90
28189;DHT22;15471;51.166;4.470;2022-11-20T16:23:58;8.10;99.90
28189;DHT22;15471;51.166;4.470;2022-11-20T16:26:23;8.00;99.90
28189;DHT22;15471;51.166;4.470;2022-11-20T16:28:49;8.10;99.90
28189;DHT22;15471;51.166;4.470;2022-11-20T16:31:17;8.10;99.90
28189;DHT22;15471;51.166;4.470;2022-11-20T16:33:43;8.00;99.90
28189;DHT22;15471;51.166;4.470;2022-11-20T16:36:14;8.00;99.90
28189;DHT22;15471;51.166;4.470;2022-11-20T16:38:41;8.00;99.90
28189;DHT22;15471;51.166;4.470;2022-11-20T16:41:08;8.00;99.90
28189;DHT22;15471;51.166;4.470;2022-11-20T16:46:15;8.00;99.90
28189;DHT22;15471;51.166;4.470;2022-11-20T16:48:41;8.00;99.90
28189;DHT22;15471;51.166;4.470;2022-11-20T16:51:08;8.00;99.90
28189;DHT22;15471;51.166;4.470;2022-11-20T16:53:35;8.10;99.90
28189;DHT22;15471;51.166;4.470;2022-11-20T16:56:12;8.00;99.90
28189;DHT22;15471;51.166;4.470;2022-11-20T16:58:38;8.00;99.90
28189;DHT22;15471;51.166;4.470;2022-11-20T17:01:05;7.90;99.90
28189;DHT22;15471;51.166;4.470;2022-11-20T17:03:32;7.90;99.90
28189;DHT22;15471;51.166;4.470;2022-11-20T17:05:58;7.90;99.90
28189;DHT22;15471;51.166;4.470;2022-11-20T17:08:23;7.90;99.90
28189;DHT22;15471;51.166;4.470;2022-11-20T17:10:49;7.90;99.90
28189;DHT22;15471;51.166;4.470;2022-11-20T17:13:15;7.90;99.90
28189;DHT22;15471;51.166;4.470;2022-11-20T17:15:40;7.90;99.90
28189;DHT22;15471;51.166;4.470;2022-11-20T17:18:06;7.90;99.90
28189;DHT22;15471;51.166;4.470;2022-11-20T17:20:32;8.00;99.90
28189;DHT22;15471;51.166;4.470;2022-11-20T17:22:58;8.00;99.90
28189;DHT22;15471;51.166;4.470;2022-11-20T17:25:24;8.00;99.90
28189;DHT22;15471;51.166;4.470;2022-11-20T17:27:49;8.00;99.90
28189;DHT22;15471;51.166;4.470;2022-11-20T17:30:15;7.90;99.90
28189;DHT22;15471;51.166;4.470;2022-11-20T17:32:41;7.90;99.90
28189;DHT22;15471;51.166;4.470;2022-11-20T17:35:11;7.80;99.90
28189;DHT22;15471;51.166;4.470;2022-11-20T17:37:37;7.70;99.90
28189;DHT22;15471;51.166;4.470;2022-11-20T17:40:03;7.70;99.90
28189;DHT22;15471;51.166;4.470;2022-11-20T17:42:29;7.60;99.90
28189;DHT22;15471;51.166;4.470;2022-11-20T17:45:01;7.60;99.90
28189;DHT22;15471;51.166;4.470;2022-11-20T17:47:27;7.50;99.90
28189;DHT22;15471;51.166;4.470;2022-11-20T17:49:53;7.50;99.90
28189;DHT22;15471;51.166;4.470;2022-11-20T17:52:20;7.60;99.90
28189;DHT22;15471;51.166;4.470;2022-11-20T17:54:46;7.50;99.90
28189;DHT22;15471;51.166;4.470;2022-11-20T17:57:11;7.60;99.90
28189;DHT22;15471;51.166;4.470;2022-11-20T17:59:56;7.50;99.90
28189;DHT22;15471;51.166;4.470;2022-11-20T18:02:21;7.50;99.90
28189;DHT22;15471;51.166;4.470;2022-11-20T18:04:47;7.50;99.90